Latest Weather Observations for Ballina

IDN60801

Issued at 9:33 pm EST Thursday 29 September 2016 (issued every 30 minutes, with the page automatically refreshed every 10 minutes)

About weather observations | Map of weather stations | Latest weather observations for NSW | Other Formats
Station Details ID: 058198 Name: BALLINA AIRPORT AWS Lat: -28.84 Lon: 153.56 Height: 1.3 m
Data from the previous 72 hours. | See also: Recent months at Ballina
Date/Time
EST
Temp
°C
App
Temp
°C
Dew
Point
°C
Rel
Hum
%
Delta-T
°C
Wind Press
QNH
hPa
Press
MSL
hPa
Rain since
9am
mm
Dir  Spd
km/h
Gust
km/h
Spd
kts
Gust
kts
29/09:30pm 19.1 15.0 12.6 66 3.7 N 26 35 14 19 1004.9 1004.9 0.0
29/09:00pm 18.9 15.9 12.6 67 3.5 N 20 30 11 16 1004.9 1004.9 0.0
29/08:30pm 19.1 16.1 12.6 66 3.6 NNE 20 30 11 16 1004.5 1004.5 0.0
29/08:00pm 19.2 16.3 12.2 64 3.9 NNE 19 32 10 17 1004.7 1004.7 0.0
29/07:30pm 19.7 16.1 11.7 60 4.4 N 22 35 12 19 1004.5 1004.5 0.0
29/07:00pm 19.5 16.3 11.8 61 4.3 NNE 20 28 11 15 1004.6 1004.6 0.0
29/06:30pm 19.5 16.3 12.0 62 4.2 NNE 20 28 11 15 1004.7 1004.7 0.0
29/06:00pm 19.9 17.4 12.2 61 4.3 NNE 17 24 9 13 1004.7 1004.7 0.0
29/05:30pm 20.6 16.7 12.1 58 4.8 N 24 35 13 19 1004.0 1004.0 0.0
29/05:00pm 21.3 17.7 11.9 55 5.3 NNE 22 33 12 18 1004.0 1004.0 0.0
29/04:30pm 22.4 17.8 12.4 53 5.7 N 28 44 15 24 1004.1 1004.1 0.0
29/04:00pm 22.9 17.4 11.9 50 6.2 N 32 48 17 26 1004.0 1004.0 0.0
29/03:30pm 23.6 19.2 11.6 47 6.8 N 26 39 14 21 1003.8 1003.8 0.0
29/03:00pm 22.3 18.2 11.4 50 6.1 N 24 35 13 19 1004.3 1004.3 0.0
29/02:30pm 22.6 17.7 11.4 49 6.2 NNE 28 39 15 21 1004.3 1004.3 0.0
29/02:00pm 22.9 18.8 11.6 49 6.4 N 24 33 13 18 1004.8 1004.8 0.0
29/01:30pm 23.5 18.4 10.6 44 7.1 N 28 39 15 21 1005.3 1005.3 0.0
29/01:00pm 24.1 20.1 11.8 46 7.0 N 24 35 13 19 1005.5 1005.5 0.0
29/12:30pm 23.2 19.1 11.3 47 6.6 N 24 37 13 20 1005.6 1005.6 0.0
29/12:00pm 22.7 18.0 12.0 50 6.1 N 28 43 15 23 1005.7 1005.7 0.0
29/11:44am 23.4 18.7 12.1 49 6.4 N 28 48 15 26 1005.5 1005.5 0.0
29/11:30am 23.7 19.7 13.0 51 6.2 N 26 41 14 22 1005.8 1005.8 0.0
29/11:00am 22.4 18.3 12.6 54 5.6 N 26 39 14 21 1006.4 1006.4 0.0
29/10:30am 21.7 17.5 12.3 55 5.3 N 26 37 14 20 1006.6 1006.6 0.0
29/10:00am 22.4 19.5 14.0 59 4.9 NNE 22 33 12 18 1007.2 1007.2 0.0
29/09:30am 21.2 18.7 13.4 61 4.5 NNE 19 28 10 15 1007.6 1007.6 0.0
29/09:00am 21.2 19.0 14.8 67 3.8 NNE 20 32 11 17 1008.1 1008.1 0.0
29/08:30am 20.3 19.1 15.1 72 3.1 N 15 22 8 12 1008.6 1008.6 0.0
29/08:00am 19.6 17.9 14.6 73 2.9 N 17 24 9 13 1008.8 1008.8 0.0
29/07:30am 19.8 17.6 14.8 73 2.9 N 20 30 11 16 1008.9 1008.9 0.0
29/07:00am 19.5 17.8 16.2 81 2.0 NNE 20 30 11 16 1008.7 1008.7 0.0
29/06:30am 18.8 18.8 16.2 85 1.5 N 11 19 6 10 1009.1 1009.1 0.0
29/06:00am 18.2 18.1 16.0 87 1.3 N 11 17 6 9 1008.8 1008.8 0.0
29/05:30am 17.5 17.6 15.5 88 1.2 N 9 11 5 6 1008.9 1008.9 0.0
29/05:00am 17.2 17.3 15.4 89 1.1 N 9 11 5 6 1008.8 1008.8 0.0
29/04:30am 15.3 16.5 13.8 91 0.8 CALM 0 0 0 0 1009.2 1009.2 0.0
29/04:00am 14.9 16.0 13.4 91 0.8 CALM 0 0 0 0 1009.1 1009.1 0.0
29/03:30am 14.2 14.9 12.2 88 1.1 CALM 0 0 0 0 1009.5 1009.5 0.0
29/03:00am 15.4 15.2 13.6 89 1.0 NNW 7 7 4 4 1009.9 1009.9 0.0
29/02:30am 15.3 15.0 13.2 87 1.2 N 7 7 4 4 1010.0 1010.0 0.0
29/02:00am 15.0 14.7 13.4 90 0.9 N 7 9 4 5 1010.2 1010.2 0.0
29/01:30am 13.9 14.7 12.6 92 0.7 CALM 0 0 0 0 1010.7 1010.7 0.0
29/01:00am 13.6 14.4 12.7 94 0.5 CALM 0 0 0 0 1011.5 1011.5 0.0
29/12:30am 12.9 13.4 11.6 92 0.7 CALM 0 0 0 0 1012.1 1012.1 0.0
29/12:00am 12.8 13.2 11.2 90 0.8 CALM 0 0 0 0 1012.6 1012.6 0.0
 
Date/Time
EST
Temp
°C
App
Temp
°C
Dew
Point
°C
Rel
Hum
%
Delta-T
°C
Wind Press
QNH
hPa
Press
MSL
hPa
Rain since
9am
mm
Dir  Spd
km/h
Gust
km/h
Spd
kts
Gust
kts
28/11:30pm 13.0 13.4 11.2 89 0.9 CALM 0 0 0 0 1012.7 1012.7 0.0
28/11:00pm 13.4 13.9 11.6 89 1.0 CALM 0 0 0 0 1012.9 1012.9 0.0
28/10:30pm 13.7 14.2 11.6 87 1.1 CALM 0 0 0 0 1013.1 1013.1 0.0
28/10:00pm 14.0 14.6 11.9 87 1.1 CALM 0 0 0 0 1013.3 1013.3 0.0
28/09:30pm 14.3 14.9 11.8 85 1.3 CALM 0 0 0 0 1013.4 1013.4 0.0
28/09:00pm 14.8 15.3 11.6 81 1.7 CALM 0 0 0 0 1013.4 1013.4 0.0
28/08:30pm 15.1 14.4 11.3 78 2.0 N 6 7 3 4 1013.4 1013.4 0.0
28/08:00pm 15.4 14.6 11.6 78 2.0 NNW 7 9 4 5 1013.4 1013.4 0.0
28/07:30pm 16.1 15.3 11.7 75 2.4 NNE 7 9 4 5 1013.0 1013.0 0.0
28/07:00pm 16.5 15.4 10.8 69 3.0 NE 7 9 4 5 1012.9 1012.9 0.0
28/06:30pm 16.5 15.5 10.4 67 3.2 NE 6 9 3 5 1012.7 1012.7 0.0
28/06:00pm 16.9 15.6 10.1 64 3.6 NE 7 9 4 5 1012.7 1012.7 0.0
28/05:30pm 18.5 16.3 9.3 55 4.8 E 11 15 6 8 1012.6 1012.6 0.0
28/05:00pm 19.7 16.9 8.7 49 5.8 E 13 19 7 10 1012.0 1012.0 0.0
28/04:30pm 20.5 16.9 8.5 46 6.3 E 17 20 9 11 1011.9 1011.9 0.0
28/04:00pm 20.8 17.1 7.8 43 6.7 ESE 17 24 9 13 1011.5 1011.5 0.0
28/03:30pm 21.2 17.1 8.8 45 6.5 ESE 20 28 11 15 1011.4 1011.4 0.0
28/03:00pm 21.3 17.0 7.9 42 7.0 ESE 20 30 11 16 1011.5 1011.5 0.0
28/02:30pm 21.7 17.6 8.6 43 6.9 SE 20 28 11 15 1012.0 1012.0 0.0
28/02:00pm 21.6 17.3 7.8 41 7.2 SE 20 28 11 15 1012.2 1012.2 0.0
28/01:30pm 21.5 16.9 8.1 42 7.0 SSE 22 30 12 16 1012.6 1012.6 0.0
28/01:00pm 21.1 16.2 8.4 44 6.7 SSE 24 32 13 17 1013.0 1013.0 0.0
28/12:30pm 21.7 17.3 8.9 44 6.8 SSE 22 28 12 15 1013.6 1013.6 0.0
28/12:00pm 21.7 17.1 8.2 42 7.1 SSE 22 30 12 16 1013.8 1013.8 0.0
28/11:30am 22.2 18.1 8.7 42 7.2 SSE 20 26 11 14 1014.1 1014.1 0.0
28/11:00am 21.8 18.0 9.0 44 6.8 S 19 24 10 13 1014.5 1014.5 0.0
28/10:30am 21.1 16.8 8.0 43 6.8 S 20 28 11 15 1014.7 1014.7 0.0
28/10:00am 21.3 17.0 7.9 42 7.0 S 20 28 11 15 1014.7 1014.7 0.0
28/09:30am 21.1 16.5 8.0 43 6.8 S 22 30 12 16 1014.6 1014.6 0.0
28/09:00am 20.7 15.9 8.7 46 6.3 S 24 33 13 18 1014.6 1014.6 0.0
28/08:30am 20.6 16.7 9.5 49 5.9 SSW 20 28 11 15 1014.7 1014.7 0.0
28/08:00am 19.6 16.3 9.5 52 5.4 SSW 17 24 9 13 1014.7 1014.7 0.0
28/07:30am 18.8 16.2 9.3 54 5.0 SSW 13 19 7 10 1014.2 1014.2 0.0
28/07:00am 16.5 15.0 9.2 62 3.8 WSW 7 13 4 7 1013.9 1013.9 0.0
28/06:30am 12.3 12.5 10.7 90 0.8 CALM 0 0 0 0 1013.6 1013.6 0.0
28/06:00am 9.9 9.6 8.5 91 0.7 CALM 0 0 0 0 1013.2 1013.2 0.0
28/05:30am 9.7 9.1 7.5 86 1.0 CALM 0 0 0 0 1012.8 1012.8 0.0
28/05:00am 10.3 9.4 9.1 92 0.6 WSW 4 7 2 4 1012.5 1012.5 0.0
28/04:30am 9.3 8.8 7.9 91 0.7 CALM 0 0 0 0 1012.1 1012.1 0.0
28/04:00am 9.4 8.6 8.0 91 0.7 W 2 9 1 5 1011.8 1011.8 0.0
28/03:30am 10.1 9.6 8.0 87 1.0 CALM 0 0 0 0 1011.4 1011.4 0.0
28/03:00am 9.3 8.2 7.1 86 1.0 S 2 7 1 4 1011.4 1011.4 0.0
28/02:30am 11.1 10.9 9.0 87 1.0 CALM 0 0 0 0 1011.2 1011.2 0.0
28/02:00am 12.4 10.6 7.9 74 2.2 W 7 9 4 5 1011.1 1011.1 0.0
28/01:30am 13.1 11.3 7.3 68 2.8 W 6 7 3 4 1011.2 1011.2 0.0
28/01:00am 13.1 10.6 8.0 71 2.5 NW 11 13 6 7 1011.2 1011.2 0.0
28/12:30am 12.4 12.2 9.1 80 1.7 CALM 0 0 0 0 1011.3 1011.3 0.0
28/12:00am 15.2 12.8 7.0 58 4.0 WNW 9 13 5 7 1011.2 1011.2 0.0
 
Date/Time
EST
Temp
°C
App
Temp
°C
Dew
Point
°C
Rel
Hum
%
Delta-T
°C
Wind Press
QNH
hPa
Press
MSL
hPa
Rain since
9am
mm
Dir  Spd
km/h
Gust
km/h
Spd
kts
Gust
kts
27/11:30pm 13.1 10.7 8.6 74 2.2 WNW 11 15 6 8 1011.3 1011.3 0.0
27/11:00pm 13.0 13.2 10.4 84 1.3 CALM 0 0 0 0 1011.7 1011.7 0.0
27/10:30pm 12.3 11.7 9.1 81 1.6 N 2 6 1 3 1011.8 1011.8 0.0
27/10:00pm 13.9 13.5 9.7 76 2.2 N 2 6 1 3 1011.8 1011.8 0.0
27/09:30pm 14.8 14.0 9.8 72 2.6 NNW 4 9 2 5 1011.9 1011.9 0.0
27/09:00pm 14.4 13.0 9.4 72 2.6 NNW 7 9 4 5 1012.0 1012.0 0.0
27/08:30pm 15.7 13.9 9.6 67 3.2 N 9 13 5 7 1012.0 1012.0 0.0
27/08:00pm 16.7 14.1 9.4 62 3.8 N 13 19 7 10 1011.8 1011.8 0.0
27/07:30pm 17.4 14.9 9.6 60 4.1 N 13 19 7 10 1011.8 1011.8 0.0
27/07:00pm 17.1 14.5 9.5 61 4.0 N 13 17 7 9 1011.6 1011.6 0.0
27/06:30pm 17.7 15.1 9.3 58 4.4 N 13 17 7 9 1011.5 1011.5 0.0
27/06:00pm 18.2 15.2 9.3 56 4.7 NNE 15 20 8 11 1011.0 1011.0 0.0
27/05:30pm 18.8 15.1 9.3 54 5.0 NNE 19 26 10 14 1010.7 1010.7 0.0
27/05:00pm 19.9 16.4 8.9 49 5.8 NNE 17 24 9 13 1010.3 1010.3 0.0
27/04:30pm 20.5 16.1 8.8 47 6.2 NE 22 28 12 15 1009.9 1009.9 0.0
27/04:00pm 21.3 17.4 9.5 47 6.3 ENE 20 26 11 14 1010.1 1010.1 0.0
27/03:30pm 21.5 17.6 7.3 40 7.3 ENE 17 24 9 13 1010.0 1010.0 0.0
27/03:00pm 21.6 17.3 7.1 39 7.4 E 19 24 10 13 1010.2 1010.2 0.0
27/02:30pm 21.2 17.0 5.9 37 7.7 E 17 20 9 11 1010.6 1010.6 0.0
27/02:00pm 21.5 18.4 5.4 35 8.0 ESE 11 17 6 9 1011.2 1011.2 0.0
27/01:30pm 21.5 18.0 5.4 35 8.0 SE 13 17 7 9 1011.6 1011.6 0.0
27/01:00pm 21.2 17.0 3.9 32 8.3 SSE 15 19 8 10 1012.2 1012.2 0.0
27/12:30pm 20.7 16.0 5.1 36 7.7 SE 19 28 10 15 1012.7 1012.7 0.0
27/12:00pm 21.7 17.0 6.0 36 7.9 SE 20 28 11 15 1013.1 1013.1 0.0
27/11:30am 21.0 15.1 4.1 33 8.2 SSE 24 35 13 19 1013.5 1013.5 0.0
27/11:00am 21.1 15.1 3.3 31 8.5 S 24 30 13 16 1013.9 1013.9 0.0
27/10:30am 20.5 16.1 6.5 40 7.0 SSE 19 26 10 14 1014.4 1014.4 0.0
27/10:00am 20.8 16.6 5.6 37 7.5 SSW 17 24 9 13 1014.7 1014.7 0.0
27/09:30am 19.8 14.9 5.1 38 7.2 SW 20 26 11 14 1015.0 1015.0 0.0
27/09:00am 19.3 14.7 5.7 41 6.7 SW 19 28 10 15 1014.9 1014.9 0.0
27/08:30am 18.5 12.8 5.0 41 6.5 SW 24 32 13 17 1015.2 1015.2 0.0
27/08:00am 18.0 12.4 5.6 44 6.0 WSW 24 33 13 18 1015.2 1015.2 0.0
27/07:30am 17.3 12.7 6.5 49 5.3 WSW 20 32 11 17 1014.8 1014.8 0.0
27/07:00am 16.3 12.4 7.0 54 4.6 WSW 17 22 9 12 1014.6 1014.6 0.0
27/06:30am 14.4 11.3 7.2 62 3.5 W 13 17 7 9 1014.3 1014.3 0.0
27/06:00am 12.6 9.7 6.4 66 2.9 WSW 11 13 6 7 1013.6 1013.6 0.0
27/05:30am 13.7 10.3 5.8 59 3.7 SW 13 19 7 10 1013.1 1013.1 0.0
27/05:00am 13.8 10.4 5.9 59 3.7 WSW 13 19 7 10 1012.8 1012.8 0.0
27/04:30am 13.6 10.1 5.3 57 3.9 WSW 13 19 7 10 1012.2 1012.2 0.0
27/04:00am 14.1 10.6 5.5 56 4.1 WNW 13 19 7 10 1011.9 1011.9 0.0
27/03:30am 14.2 10.8 5.8 57 4.0 WSW 13 20 7 11 1011.8 1011.8 0.0
27/03:00am 14.3 10.6 6.2 58 3.9 W 15 19 8 10 1011.4 1011.4 0.0
27/02:30am 15.2 10.6 5.7 53 4.5 W 19 24 10 13 1011.5 1011.5 0.0
27/02:00am 15.2 9.7 6.0 54 4.4 W 24 32 13 17 1011.6 1011.6 0.0
27/01:30am 15.2 10.6 6.7 57 4.1 W 20 28 11 15 1011.7 1011.7 0.0
27/01:00am 15.2 11.5 8.0 62 3.6 W 17 22 9 12 1011.9 1011.9 0.0
27/12:30am 14.1 10.8 8.1 67 3.0 W 15 17 8 9 1011.9 1011.9 0.0
27/12:00am 16.0 12.4 8.5 61 3.8 W 17 24 9 13 1012.0 1012.0 0.0
 
Date/Time
EST
Temp
°C
App
Temp
°C
Dew
Point
°C
Rel
Hum
%
Delta-T
°C
Wind Press
QNH
hPa
Press
MSL
hPa
Rain since
9am
mm
Dir  Spd
km/h
Gust
km/h
Spd
kts
Gust
kts
26/11:30pm 17.6 14.2 9.2 58 4.4 WNW 17 22 9 12 1011.9 1011.9 0.0
26/11:00pm 17.0 15.7 11.3 69 3.1 WNW 9 15 5 8 1012.0 1012.0 0.0
26/10:30pm 17.3 16.3 12.4 73 2.7 NNW 9 13 5 7 1011.7 1011.7 0.0
26/10:00pm 17.8 16.2 12.9 73 2.7 NNW 13 15 7 8 1012.0 1012.0 0.0

Other Formats:

Comma delimited format used in spreadsheet applications
http://www.bom.gov.au/fwo/IDN60801/IDN60801.94596.axf

JavaScript Object Notation format (JSON) in row-major order
http://www.bom.gov.au/fwo/IDN60801/IDN60801.94596.json